Terminal Aerodrome Forecast
Issued by NWS

Current Version | Previous Version | Text Only | Print | Product List | Glossary Off
Versions: 1 2 3 4 5 6 7 8 9 10 11 12 13 14 15 16 17 18 19 20 21 22 23 24 25 26 27 28 29 30 31 32 33 34 35 36 37 38 39 40 41 42 43 44 45 46

000
FTUS41 KRNK 300303 AAA
TAFLWB
TAF AMD
KLWB 300303Z 3003/3024 00000KT P6SM SCT100
     FM300500 00000KT 4SM BR FEW250
     FM300700 00000KT 1/4SM FG OVC001
     FM301500 31002KT P6SM SCT030=

USA.gov is the U.S. government's official web portal to all federal, state and local government web resources and services.